createdAt,value
2023-04-24T00:01:20.390Z,16.38
2023-04-24T00:03:47.876Z,16.17
2023-04-24T00:06:17.850Z,16.25
2023-04-24T00:08:45.280Z,15.95
2023-04-24T00:11:14.026Z,16.28
2023-04-24T00:13:41.455Z,16.12
2023-04-24T00:16:08.944Z,16.23
2023-04-24T00:18:36.348Z,15.80
2023-04-24T00:21:03.892Z,15.87
2023-04-24T00:23:31.322Z,16.14
2023-04-24T00:25:58.922Z,15.82
2023-04-24T00:28:27.687Z,15.83
2023-04-24T00:30:55.147Z,15.99
2023-04-24T00:33:22.552Z,16.05
2023-04-24T00:35:49.978Z,15.56
2023-04-24T00:38:17.355Z,15.47
2023-04-24T00:40:44.797Z,15.65
2023-04-24T00:43:12.840Z,15.40
2023-04-24T00:45:41.794Z,15.63
2023-04-24T00:48:09.445Z,15.51
2023-04-24T00:50:38.057Z,15.93
2023-04-24T00:53:05.571Z,15.83
2023-04-24T00:55:33.763Z,16.00
2023-04-24T00:58:01.476Z,16.03
2023-04-24T01:00:28.988Z,15.84
2023-04-24T01:02:59.841Z,15.78
2023-04-24T01:05:28.209Z,15.71
2023-04-24T01:07:55.785Z,15.83
2023-04-24T01:10:23.949Z,16.08
2023-04-24T01:12:52.084Z,16.00
2023-04-24T01:15:19.489Z,16.08
2023-04-24T01:17:47.636Z,15.95
2023-04-24T01:20:16.649Z,15.78
2023-04-24T01:22:45.491Z,15.50
2023-04-24T01:25:12.919Z,15.43
2023-04-24T01:27:40.530Z,15.74
2023-04-24T01:30:09.400Z,15.44
2023-04-24T01:32:38.215Z,15.64
2023-04-24T01:35:06.875Z,16.04
2023-04-24T01:37:34.336Z,16.09
2023-04-24T01:40:04.426Z,15.81
2023-04-24T01:42:32.157Z,16.14
2023-04-24T01:45:00.182Z,16.12
2023-04-24T01:47:27.798Z,16.08
2023-04-24T01:49:55.220Z,16.28
2023-04-24T01:52:22.638Z,15.73
2023-04-24T01:54:50.342Z,16.13
2023-04-24T01:57:19.215Z,16.21
2023-04-24T01:59:46.616Z,16.18
2023-04-24T02:02:14.105Z,16.22
2023-04-24T02:04:41.606Z,16.25
2023-04-24T02:07:09.012Z,15.99
2023-04-24T02:09:36.412Z,15.27
2023-04-24T02:12:03.893Z,15.90
2023-04-24T02:14:32.586Z,15.35
2023-04-24T02:17:00.022Z,15.03
2023-04-24T02:19:27.417Z,15.76
2023-04-24T02:21:54.828Z,15.71
2023-04-24T02:24:22.211Z,15.76
2023-04-24T02:26:49.667Z,15.87
2023-04-24T02:29:17.100Z,15.22
2023-04-24T02:31:45.916Z,15.71
2023-04-24T02:34:13.315Z,15.62
2023-04-24T02:36:40.717Z,15.62
2023-04-24T02:39:08.246Z,15.13
2023-04-24T02:41:35.702Z,15.05
2023-04-24T02:44:03.103Z,15.51
2023-04-24T02:46:30.878Z,15.52
2023-04-24T02:48:59.653Z,14.93
2023-04-24T02:51:27.790Z,15.68
2023-04-24T02:53:55.389Z,15.86
2023-04-24T02:56:22.909Z,15.92
2023-04-24T02:58:50.390Z,15.63
2023-04-24T03:01:18.871Z,15.25
2023-04-24T03:03:46.659Z,14.31
2023-04-24T03:06:15.516Z,14.39
2023-04-24T03:08:42.913Z,14.58
2023-04-24T03:11:10.348Z,15.22
2023-04-24T03:13:37.728Z,15.38
2023-04-24T03:16:05.796Z,15.83
2023-04-24T03:18:33.265Z,15.92
2023-04-24T03:21:00.717Z,16.05
2023-04-24T03:23:29.424Z,15.93
2023-04-24T03:25:56.882Z,15.64
2023-04-24T03:28:24.450Z,15.92
2023-04-24T03:30:51.860Z,15.48
2023-04-24T03:33:19.268Z,15.76
2023-04-24T03:35:46.656Z,15.57
2023-04-24T03:38:14.054Z,15.69
2023-04-24T03:40:42.885Z,15.72
2023-04-24T03:43:10.249Z,15.78
2023-04-24T03:45:37.643Z,15.81
2023-04-24T03:48:05.187Z,15.90
2023-04-24T03:50:32.570Z,15.15
2023-04-24T03:52:59.945Z,15.44
2023-04-24T03:55:27.366Z,15.55
2023-04-24T03:57:56.106Z,15.18
2023-04-24T04:00:23.561Z,15.58
2023-04-24T04:02:51.116Z,15.63
2023-04-24T04:05:18.893Z,14.97
2023-04-24T04:07:46.368Z,15.21
2023-04-24T04:10:13.860Z,15.39
2023-04-24T04:12:41.312Z,15.63
2023-04-24T04:15:10.921Z,15.37
2023-04-24T04:17:38.990Z,15.69
2023-04-24T04:20:10.310Z,14.86
2023-04-24T04:22:37.950Z,15.22
2023-04-24T04:25:05.795Z,15.24
2023-04-24T04:27:33.910Z,15.41
2023-04-24T04:30:03.984Z,15.49
2023-04-24T04:32:34.139Z,15.81
2023-04-24T04:35:04.106Z,15.79
2023-04-24T04:37:32.298Z,15.79
2023-04-24T04:39:59.962Z,15.90
2023-04-24T04:42:27.930Z,15.87
2023-04-24T04:44:55.362Z,14.84
2023-04-24T04:47:23.864Z,15.79
2023-04-24T04:49:53.085Z,16.09
2023-04-24T04:52:20.719Z,16.24
2023-04-24T04:54:48.162Z,15.95
2023-04-24T04:57:15.628Z,15.83
2023-04-24T04:59:43.237Z,16.31
2023-04-24T05:02:11.194Z,15.99
2023-04-24T05:04:38.872Z,16.18
2023-04-24T05:07:07.816Z,16.18
2023-04-24T05:09:35.251Z,16.56
2023-04-24T05:12:03.028Z,15.91
2023-04-24T05:14:30.465Z,16.75
2023-04-24T05:16:57.969Z,17.19
2023-04-24T05:19:25.401Z,17.04
2023-04-24T05:21:52.785Z,16.64
2023-04-24T05:24:21.493Z,17.07
2023-04-24T05:26:48.919Z,17.96
2023-04-24T05:29:16.470Z,17.80
2023-04-24T05:31:43.914Z,18.16
2023-04-24T05:34:11.331Z,18.35
2023-04-24T05:36:38.717Z,18.04
2023-04-24T05:39:08.150Z,18.93
2023-04-24T05:41:37.180Z,20.14
2023-04-24T05:44:04.599Z,20.76
2023-04-24T05:46:32.112Z,20.44
2023-04-24T05:48:59.668Z,20.67
2023-04-24T05:51:27.140Z,20.84
2023-04-24T05:53:54.574Z,21.63
2023-04-24T05:56:22.510Z,21.45
2023-04-24T05:58:51.243Z,21.74
2023-04-24T06:01:19.205Z,22.22
2023-04-24T06:03:46.847Z,21.84
2023-04-24T06:06:14.534Z,21.94
2023-04-24T06:08:43.441Z,21.21
2023-04-24T06:11:10.874Z,22.24
2023-04-24T06:13:38.291Z,23.14
2023-04-24T06:16:07.399Z,21.40
2023-04-24T06:18:34.852Z,19.67
2023-04-24T06:21:02.309Z,20.05
2023-04-24T06:23:30.360Z,20.52
2023-04-24T06:25:57.830Z,20.23
2023-04-24T06:28:25.232Z,20.03
2023-04-24T06:30:52.669Z,19.28
2023-04-24T06:33:23.691Z,19.57
2023-04-24T06:35:51.417Z,19.72
2023-04-24T06:38:18.858Z,19.01
2023-04-24T06:40:46.303Z,19.38
2023-04-24T06:43:13.737Z,18.88
2023-04-24T06:45:41.296Z,18.78
2023-04-24T06:48:08.913Z,19.05
2023-04-24T06:50:37.662Z,18.94
2023-04-24T06:53:05.179Z,18.77
2023-04-24T06:55:32.629Z,19.50
2023-04-24T06:58:00.052Z,18.50
2023-04-24T07:00:27.453Z,18.73
2023-04-24T07:02:55.097Z,19.33
2023-04-24T07:05:22.648Z,19.45
2023-04-24T07:07:52.194Z,19.00
2023-04-24T07:10:21.098Z,19.30
2023-04-24T07:12:48.485Z,18.87
2023-04-24T07:15:15.896Z,17.80
2023-04-24T07:17:44.600Z,18.42
2023-04-24T07:20:12.632Z,19.15
2023-04-24T07:22:40.527Z,19.15
2023-04-24T07:25:10.306Z,19.31
2023-04-24T07:27:37.862Z,19.88
2023-04-24T07:30:06.438Z,20.20
2023-04-24T07:32:36.772Z,20.45
2023-04-24T07:35:04.279Z,20.19
2023-04-24T07:37:31.746Z,20.56
2023-04-24T07:39:59.241Z,20.19
2023-04-24T07:42:27.934Z,20.56
2023-04-24T07:44:55.317Z,20.14
2023-04-24T07:47:22.802Z,19.70
2023-04-24T07:49:50.251Z,20.04
2023-04-24T07:52:17.619Z,19.91
2023-04-24T07:54:45.335Z,19.85
2023-04-24T07:57:12.973Z,19.76
2023-04-24T07:59:41.832Z,19.37
2023-04-24T08:02:10.509Z,19.48
2023-04-24T08:04:38.114Z,19.93
2023-04-24T08:07:05.772Z,19.97
2023-04-24T08:09:33.206Z,19.85
2023-04-24T08:12:00.760Z,20.15
2023-04-24T08:14:28.188Z,19.58
2023-04-24T08:16:57.852Z,20.27
2023-04-24T08:19:26.467Z,19.12
2023-04-24T08:21:53.877Z,18.73
2023-04-24T08:24:21.371Z,19.23
2023-04-24T08:26:51.150Z,19.49
2023-04-24T08:29:18.545Z,20.03
2023-04-24T08:31:46.000Z,20.29
2023-04-24T08:34:14.763Z,20.19
2023-04-24T08:36:47.088Z,20.70
2023-04-24T08:39:15.283Z,20.48
2023-04-24T08:41:43.942Z,20.77
2023-04-24T08:44:11.566Z,20.45
2023-04-24T08:46:39.473Z,20.52
2023-04-24T08:49:07.022Z,21.01
2023-04-24T08:51:36.336Z,21.11
2023-04-24T08:54:04.869Z,21.42
2023-04-24T08:56:35.356Z,20.56
2023-04-24T08:59:03.916Z,21.48
2023-04-24T09:01:34.857Z,20.97
2023-04-24T09:04:05.041Z,20.08
2023-04-24T09:06:34.089Z,20.83
2023-04-24T09:09:04.335Z,19.81
2023-04-24T09:11:32.872Z,20.95
2023-04-24T09:14:00.856Z,21.26
2023-04-24T09:16:28.952Z,20.61
2023-04-24T09:18:57.156Z,20.59
2023-04-24T09:21:24.797Z,20.37
2023-04-24T09:24:00.694Z,21.07
2023-04-24T09:26:33.352Z,21.23
2023-04-24T09:29:01.801Z,21.51
2023-04-24T09:31:30.663Z,21.17
2023-04-24T09:34:01.997Z,21.28
2023-04-24T09:36:33.072Z,20.93
2023-04-24T09:39:01.327Z,20.40
2023-04-24T09:41:30.717Z,19.82
2023-04-24T09:43:58.963Z,19.85
2023-04-24T09:46:33.200Z,20.88
2023-04-24T09:49:10.406Z,21.10
2023-04-24T09:51:39.265Z,20.75
2023-04-24T09:54:16.560Z,20.87
2023-04-24T09:56:47.312Z,20.42
2023-04-24T09:59:15.319Z,20.44
2023-04-24T10:01:45.461Z,20.80
2023-04-24T10:04:21.230Z,20.86
2023-04-24T10:06:49.821Z,20.73
2023-04-24T10:09:18.048Z,21.08
2023-04-24T10:11:48.338Z,21.23
2023-04-24T10:14:20.213Z,21.35
2023-04-24T10:16:48.693Z,21.74
2023-04-24T10:19:16.972Z,21.45
2023-04-24T10:21:47.519Z,21.35
2023-04-24T10:24:16.594Z,21.47
2023-04-24T10:26:45.253Z,21.52
2023-04-24T10:29:16.463Z,21.36
2023-04-24T10:31:46.470Z,21.17
2023-04-24T10:34:16.468Z,20.89
2023-04-24T10:36:56.530Z,20.66
2023-04-24T10:39:27.913Z,20.28
2023-04-24T10:41:58.247Z,19.15
2023-04-24T10:44:27.710Z,19.48
2023-04-24T10:46:57.141Z,20.21
2023-04-24T10:49:30.753Z,19.47
2023-04-24T10:52:02.656Z,19.97
2023-04-24T10:54:31.588Z,20.33
2023-04-24T10:57:31.860Z,20.35
2023-04-24T11:00:22.366Z,20.84
2023-04-24T11:02:51.737Z,20.86
2023-04-24T11:05:20.515Z,21.45
2023-04-24T11:08:13.612Z,21.61
2023-04-24T11:10:46.438Z,21.61
2023-04-24T11:13:16.971Z,22.12
2023-04-24T11:15:45.911Z,21.58
2023-04-24T11:18:16.882Z,21.78
2023-04-24T11:20:45.262Z,21.38
2023-04-24T11:23:14.791Z,21.49
2023-04-24T11:25:43.704Z,21.53
2023-04-24T11:28:17.161Z,21.52
2023-04-24T11:30:45.922Z,20.83
2023-04-24T11:33:13.874Z,20.49
2023-04-24T11:35:42.683Z,20.56
2023-04-24T11:38:24.006Z,19.92
2023-04-24T11:40:53.379Z,19.87
2023-04-24T11:43:21.917Z,19.60
2023-04-24T11:45:51.674Z,19.36
2023-04-24T11:48:22.625Z,19.57
2023-04-24T11:50:51.411Z,19.29
2023-04-24T11:53:21.560Z,18.27
2023-04-24T11:55:49.054Z,17.69
2023-04-24T11:58:16.464Z,19.05
2023-04-24T12:00:43.892Z,19.95
2023-04-24T12:03:13.801Z,20.38
2023-04-24T12:05:42.285Z,19.52
2023-04-24T12:08:09.939Z,20.51
2023-04-24T12:10:38.047Z,19.74
2023-04-24T12:13:06.367Z,19.41
2023-04-24T12:15:33.918Z,19.63
2023-04-24T12:18:01.393Z,19.61
2023-04-24T12:20:31.930Z,19.25
2023-04-24T12:23:01.160Z,20.26
2023-04-24T12:25:30.133Z,20.48
2023-04-24T12:28:11.950Z,19.48
2023-04-24T12:30:43.877Z,20.23
2023-04-24T12:33:11.362Z,20.81
2023-04-24T12:35:42.783Z,20.74
2023-04-24T12:38:11.564Z,20.21
2023-04-24T12:40:39.025Z,20.54
2023-04-24T12:43:16.247Z,21.19
2023-04-24T12:45:43.732Z,20.11
2023-04-24T12:48:11.226Z,20.56
2023-04-24T12:50:40.570Z,19.77
2023-04-24T12:53:08.162Z,19.99
2023-04-24T12:55:35.626Z,20.00
2023-04-24T12:58:03.994Z,19.80
2023-04-24T13:00:31.621Z,20.49
2023-04-24T13:02:59.486Z,21.01
2023-04-24T13:05:27.109Z,20.74
2023-04-24T13:07:56.003Z,20.19
2023-04-24T13:10:23.515Z,20.31
2023-04-24T13:12:51.148Z,20.02
2023-04-24T13:15:18.631Z,19.96
2023-04-24T13:17:46.536Z,20.74
2023-04-24T13:20:14.186Z,19.85
2023-04-24T13:22:41.582Z,20.42
2023-04-24T13:25:11.135Z,20.30
2023-04-24T13:27:40.308Z,20.04
2023-04-24T13:30:08.978Z,19.81
2023-04-24T13:32:37.653Z,20.09
2023-04-24T13:35:05.671Z,20.00
2023-04-24T13:37:33.099Z,20.80
2023-04-24T13:40:00.526Z,20.19
2023-04-24T13:42:29.530Z,20.54
2023-04-24T13:44:56.951Z,20.42
2023-04-24T13:47:24.391Z,19.77
2023-04-24T13:49:51.890Z,20.88
2023-04-24T13:52:19.273Z,20.29
2023-04-24T13:54:46.680Z,20.59
2023-04-24T13:57:14.327Z,20.41
2023-04-24T13:59:43.113Z,20.48
2023-04-24T14:02:10.742Z,20.68
2023-04-24T14:04:38.451Z,19.89
2023-04-24T14:07:06.128Z,20.17
2023-04-24T14:09:33.664Z,20.35
2023-04-24T14:12:02.007Z,20.91
2023-04-24T14:14:30.764Z,21.09
2023-04-24T14:16:59.592Z,20.95
2023-04-24T14:19:27.052Z,21.14
2023-04-24T14:21:54.731Z,20.85
2023-04-24T14:24:22.176Z,20.57
2023-04-24T14:26:49.608Z,20.44
2023-04-24T14:29:17.322Z,20.71
2023-04-24T14:31:44.776Z,20.47
2023-04-24T14:34:13.509Z,19.90
2023-04-24T14:36:41.476Z,20.08
2023-04-24T14:39:08.889Z,20.09
2023-04-24T14:41:37.002Z,19.91
2023-04-24T14:44:05.065Z,20.13
2023-04-24T14:46:33.086Z,19.23
2023-04-24T14:49:00.546Z,19.59
2023-04-24T14:51:29.308Z,19.61
2023-04-24T14:53:57.996Z,18.58
2023-04-24T14:56:25.451Z,19.21
2023-04-24T14:58:52.874Z,19.71
2023-04-24T15:01:20.407Z,19.75
2023-04-24T15:03:48.026Z,20.18
2023-04-24T15:06:15.893Z,19.66
2023-04-24T15:08:46.422Z,19.18
2023-04-24T15:11:15.572Z,19.72
2023-04-24T15:13:43.029Z,19.88
2023-04-24T15:16:10.505Z,19.73
2023-04-24T15:18:38.008Z,19.93
2023-04-24T15:21:05.490Z,19.86
2023-04-24T15:23:32.906Z,19.59
2023-04-24T15:26:02.175Z,18.70
2023-04-24T15:28:29.673Z,19.06
2023-04-24T15:30:57.120Z,19.09
2023-04-24T15:33:24.897Z,17.74
2023-04-24T15:35:52.528Z,18.59
2023-04-24T15:38:19.934Z,18.81
2023-04-24T15:40:47.330Z,18.67
2023-04-24T15:43:17.058Z,18.64
2023-04-24T15:45:44.933Z,19.01
2023-04-24T15:48:12.383Z,19.14
2023-04-24T15:50:39.776Z,18.32
2023-04-24T15:53:07.510Z,19.27
2023-04-24T15:55:34.986Z,18.96
2023-04-24T15:58:02.553Z,18.82
2023-04-24T16:00:34.270Z,19.02
2023-04-24T16:03:02.191Z,18.84
2023-04-24T16:05:29.750Z,18.52
2023-04-24T16:07:57.838Z,18.65
2023-04-24T16:10:25.232Z,18.47
2023-04-24T16:12:53.425Z,18.65
2023-04-24T16:15:21.213Z,18.45
2023-04-24T16:17:50.993Z,17.81
2023-04-24T16:20:18.539Z,18.61
2023-04-24T16:22:45.929Z,17.99
2023-04-24T16:25:13.448Z,18.39
2023-04-24T16:27:40.849Z,17.87
2023-04-24T16:30:09.452Z,17.81
2023-04-24T16:32:36.921Z,18.08
2023-04-24T16:35:06.475Z,17.89
2023-04-24T16:37:33.876Z,17.50
2023-04-24T16:40:01.325Z,17.84
2023-04-24T16:42:28.732Z,17.02
2023-04-24T16:44:56.121Z,16.93
2023-04-24T16:47:23.602Z,17.84
2023-04-24T16:49:51.586Z,17.00
2023-04-24T16:52:20.335Z,17.42
2023-04-24T16:54:47.997Z,16.57
2023-04-24T16:57:15.649Z,15.95
2023-04-24T16:59:43.050Z,16.81
2023-04-24T17:02:10.993Z,16.43
2023-04-24T17:04:38.581Z,16.29
2023-04-24T17:10:48.461Z,16.27
2023-04-24T17:13:15.880Z,15.93
2023-04-24T17:15:43.566Z,16.37
2023-04-24T17:18:11.128Z,15.53
2023-04-24T17:20:39.230Z,15.73
2023-04-24T17:23:06.714Z,16.39
2023-04-24T17:25:34.178Z,16.68
2023-04-24T17:28:02.918Z,16.25
2023-04-24T17:30:30.719Z,16.25
2023-04-24T17:32:58.214Z,16.86
2023-04-24T17:35:25.728Z,16.85
2023-04-24T17:37:53.185Z,16.22
2023-04-24T17:40:20.611Z,16.10
2023-04-24T17:42:48.446Z,15.01
2023-04-24T17:45:17.195Z,15.05
2023-04-24T17:47:44.686Z,14.96
2023-04-24T17:50:12.375Z,15.42
2023-04-24T17:52:39.791Z,15.24
2023-04-24T17:55:07.909Z,15.10
2023-04-24T17:57:35.466Z,15.22
2023-04-24T18:00:02.928Z,14.45
2023-04-24T18:02:31.770Z,15.16
2023-04-24T18:04:59.287Z,15.53
2023-04-24T18:07:26.775Z,15.55
2023-04-24T18:09:56.122Z,15.50
2023-04-24T18:12:23.823Z,15.56
2023-04-24T18:14:54.907Z,14.98
2023-04-24T18:17:31.634Z,14.97
2023-04-24T18:19:59.052Z,14.40
2023-04-24T18:22:26.780Z,14.54
2023-04-24T18:24:54.182Z,14.89
2023-04-24T18:27:21.691Z,14.86
2023-04-24T18:29:49.247Z,15.09
2023-04-24T18:32:16.658Z,14.52
2023-04-24T18:34:45.464Z,14.88
2023-04-24T18:37:12.916Z,14.81
2023-04-24T18:39:40.572Z,14.43
2023-04-24T18:42:08.130Z,13.83
2023-04-24T18:44:35.793Z,13.65
2023-04-24T18:47:05.569Z,13.32
2023-04-24T18:49:33.050Z,13.28
2023-04-24T18:52:02.014Z,13.85
2023-04-24T18:54:29.542Z,13.49
2023-04-24T18:56:57.409Z,13.86
2023-04-24T18:59:24.893Z,13.90
2023-04-24T19:01:52.632Z,14.19
2023-04-24T19:04:20.821Z,13.50
2023-04-24T19:06:48.540Z,13.25
2023-04-24T19:09:17.402Z,13.37
2023-04-24T19:11:44.932Z,13.59
2023-04-24T19:14:13.513Z,13.33
2023-04-24T19:16:41.660Z,13.80
2023-04-24T19:19:09.236Z,13.98
2023-04-24T19:21:40.121Z,14.14
2023-04-24T19:24:09.881Z,14.46
2023-04-24T19:26:38.610Z,14.21
2023-04-24T19:29:06.117Z,14.72
2023-04-24T19:31:33.891Z,14.49
2023-04-24T19:34:03.360Z,15.02
2023-04-24T19:36:31.200Z,15.12
2023-04-24T19:39:02.395Z,15.12
2023-04-24T19:41:29.785Z,13.38
2023-04-24T19:43:58.607Z,13.97
2023-04-24T19:46:26.127Z,14.67
2023-04-24T19:48:53.640Z,14.82
2023-04-24T19:51:21.089Z,14.13
2023-04-24T19:53:49.397Z,13.46
2023-04-24T19:56:16.840Z,13.66
2023-04-24T19:58:44.384Z,14.23
2023-04-24T20:01:15.953Z,13.81
2023-04-24T20:03:43.585Z,14.00
2023-04-24T20:06:11.130Z,13.03
2023-04-24T20:08:39.595Z,13.27
2023-04-24T20:11:07.203Z,13.16
2023-04-24T20:13:34.916Z,12.92
2023-04-24T20:16:02.446Z,13.24
2023-04-24T20:18:31.291Z,12.65
2023-04-24T20:20:59.993Z,12.97
2023-04-24T20:23:27.852Z,12.96
2023-04-24T20:25:58.251Z,13.47
2023-04-24T20:28:26.868Z,13.77
2023-04-24T20:30:56.946Z,13.10
2023-04-24T20:33:25.732Z,13.18
2023-04-24T20:35:54.649Z,13.41
2023-04-24T20:38:22.921Z,13.90
2023-04-24T20:40:57.825Z,14.07
2023-04-24T20:43:28.683Z,14.34
2023-04-24T20:45:57.826Z,14.40
2023-04-24T20:48:27.553Z,13.80
2023-04-24T20:50:56.578Z,13.88
2023-04-24T20:53:24.283Z,13.64
2023-04-24T20:55:51.810Z,14.05
2023-04-24T20:58:22.693Z,13.95
2023-04-24T21:00:50.409Z,14.19
2023-04-24T21:03:18.197Z,14.04
2023-04-24T21:05:45.846Z,14.07
2023-04-24T21:08:14.856Z,14.10
2023-04-24T21:10:42.318Z,13.89
2023-04-24T21:13:10.022Z,13.78
2023-04-24T21:15:37.617Z,14.03
2023-04-24T21:18:05.749Z,13.95
2023-04-24T21:20:33.303Z,13.47
2023-04-24T21:23:00.883Z,13.38
2023-04-24T21:25:30.931Z,13.12
2023-04-24T21:27:59.964Z,12.92
2023-04-24T21:30:27.742Z,12.95
2023-04-24T21:32:56.088Z,13.52
2023-04-24T21:35:23.655Z,13.05
2023-04-24T21:37:51.408Z,13.33
2023-04-24T21:40:19.080Z,13.54
2023-04-24T21:42:47.989Z,13.75
2023-04-24T21:45:15.574Z,12.29
2023-04-24T21:47:43.013Z,13.24
2023-04-24T21:50:11.558Z,12.87
2023-04-24T21:52:39.032Z,13.42
2023-04-24T21:55:07.188Z,13.12
2023-04-24T21:57:34.769Z,13.40
2023-04-24T22:00:03.565Z,13.32
2023-04-24T22:02:31.130Z,13.85
2023-04-24T22:05:01.324Z,13.82
2023-04-24T22:07:28.789Z,14.14
2023-04-24T22:09:56.189Z,14.23
2023-04-24T22:12:23.781Z,14.75
2023-04-24T22:14:51.573Z,14.75
2023-04-24T22:17:20.532Z,14.84
2023-04-24T22:19:47.923Z,14.62
2023-04-24T22:22:15.423Z,13.39
2023-04-24T22:24:42.837Z,13.34
2023-04-24T22:27:10.322Z,13.32
2023-04-24T22:29:37.839Z,13.57
2023-04-24T22:32:05.553Z,13.40
2023-04-24T22:34:37.054Z,13.25
2023-04-24T22:37:04.488Z,12.75
2023-04-24T22:39:31.908Z,12.46
2023-04-24T22:41:59.384Z,12.85
2023-04-24T22:44:26.842Z,12.65
2023-04-24T22:46:54.285Z,12.48
2023-04-24T22:49:22.229Z,12.62
2023-04-24T22:51:51.730Z,13.24
2023-04-24T22:54:19.115Z,13.11
2023-04-24T22:56:46.755Z,12.76
2023-04-24T22:59:14.226Z,11.45
2023-04-24T23:01:41.653Z,12.34
2023-04-24T23:04:09.281Z,11.61
2023-04-24T23:06:36.852Z,12.60
2023-04-24T23:09:05.612Z,13.35
2023-04-24T23:11:33.050Z,13.11
2023-04-24T23:14:00.675Z,13.15
2023-04-24T23:16:30.873Z,12.49
2023-04-24T23:18:58.434Z,12.75
2023-04-24T23:21:26.790Z,12.82
2023-04-24T23:23:54.238Z,12.84
2023-04-24T23:26:23.011Z,12.79
2023-04-24T23:28:50.449Z,12.57
2023-04-24T23:31:17.860Z,13.11
2023-04-24T23:33:45.310Z,13.21
2023-04-24T23:36:13.114Z,13.38
2023-04-24T23:38:49.507Z,12.79
2023-04-24T23:41:17.893Z,12.63
2023-04-24T23:43:46.757Z,12.01
2023-04-24T23:46:14.335Z,11.63
2023-04-24T23:48:41.807Z,12.55
2023-04-24T23:51:09.322Z,12.16
2023-04-24T23:53:36.746Z,11.59
2023-04-24T23:56:04.414Z,12.30
2023-04-24T23:58:32.055Z,12.40
